createdAt,value
2023-06-16T00:01:11.054Z,15.08
2023-06-16T00:06:28.941Z,15.01
2023-06-16T00:11:34.402Z,14.91
2023-06-16T00:16:44.387Z,14.92
2023-06-16T00:21:49.539Z,14.88
2023-06-16T00:26:53.177Z,14.83
2023-06-16T00:31:57.058Z,14.79
2023-06-16T00:37:00.404Z,14.70
2023-06-16T00:42:04.476Z,14.66
2023-06-16T00:47:08.275Z,14.69
2023-06-16T00:52:15.278Z,14.59
2023-06-16T00:57:18.969Z,14.48
2023-06-16T01:02:24.617Z,14.41
2023-06-16T01:07:35.077Z,14.33
2023-06-16T01:13:13.775Z,14.27
2023-06-16T01:18:29.034Z,14.19
2023-06-16T01:24:09.238Z,14.12
2023-06-16T01:29:14.458Z,14.08
2023-06-16T01:34:22.686Z,14.06
2023-06-16T01:39:29.934Z,13.98
2023-06-16T01:44:36.853Z,13.89
2023-06-16T01:49:41.120Z,13.84
2023-06-16T01:54:44.766Z,13.75
2023-06-16T02:00:00.691Z,13.71
2023-06-16T02:05:06.744Z,13.65
2023-06-16T02:10:12.910Z,13.56
2023-06-16T02:15:19.576Z,13.48
2023-06-16T02:20:26.144Z,13.46
2023-06-16T02:25:29.585Z,13.44
2023-06-16T02:30:32.842Z,13.42
2023-06-16T02:35:36.049Z,13.42
2023-06-16T02:40:39.375Z,13.43
2023-06-16T02:45:42.780Z,13.38
2023-06-16T02:50:46.258Z,13.38
2023-06-16T02:55:52.930Z,13.35
2023-06-16T03:00:56.674Z,13.30
2023-06-16T03:06:17.844Z,13.30
2023-06-16T03:11:24.537Z,13.32
2023-06-16T03:16:32.804Z,13.37
2023-06-16T03:21:36.755Z,13.37
2023-06-16T03:26:42.575Z,13.40
2023-06-16T03:31:50.832Z,13.49
2023-06-16T03:36:58.424Z,13.60
2023-06-16T03:42:05.926Z,13.72
2023-06-16T03:47:09.484Z,13.80
2023-06-16T03:52:13.046Z,13.90
2023-06-16T03:57:16.942Z,13.96
2023-06-16T04:02:23.197Z,14.04
2023-06-16T04:07:27.639Z,14.18
2023-06-16T04:12:31.118Z,14.32
2023-06-16T04:17:41.578Z,14.45
2023-06-16T04:22:46.196Z,14.63
2023-06-16T04:27:52.511Z,14.80
2023-06-16T04:33:00.325Z,14.98
2023-06-16T04:38:09.924Z,15.15
2023-06-16T04:43:13.906Z,15.30
2023-06-16T04:48:17.744Z,15.45
2023-06-16T04:53:22.838Z,15.63
2023-06-16T04:58:30.397Z,15.79
2023-06-16T05:03:34.046Z,15.95
2023-06-16T05:08:37.349Z,16.15
2023-06-16T05:13:40.995Z,16.38
2023-06-16T05:18:45.143Z,16.62
2023-06-16T05:23:48.862Z,16.89
2023-06-16T05:28:52.139Z,17.07
2023-06-16T05:33:57.095Z,17.20
2023-06-16T05:39:04.318Z,17.36
2023-06-16T05:44:08.550Z,17.56
2023-06-16T05:49:11.931Z,17.71
2023-06-16T05:54:15.528Z,17.87
2023-06-16T05:59:23.851Z,18.05
2023-06-16T06:04:29.491Z,18.22
2023-06-16T06:09:39.088Z,18.37
2023-06-16T06:14:43.455Z,18.50
2023-06-16T06:19:48.609Z,18.59
2023-06-16T06:24:52.007Z,18.71
2023-06-16T06:29:55.546Z,18.86
2023-06-16T06:34:59.263Z,19.00
2023-06-16T06:40:05.835Z,19.13
2023-06-16T06:45:15.393Z,19.27
2023-06-16T06:50:19.013Z,19.45
2023-06-16T06:55:22.683Z,19.60
2023-06-16T07:00:25.960Z,19.82
2023-06-16T07:05:29.220Z,19.96
2023-06-16T07:10:34.085Z,20.04
2023-06-16T07:15:37.576Z,20.11
2023-06-16T07:20:41.096Z,20.18
2023-06-16T07:25:44.541Z,20.31
2023-06-16T07:30:49.017Z,20.43
2023-06-16T07:35:52.160Z,20.70
2023-06-16T07:40:55.401Z,21.00
2023-06-16T07:45:58.734Z,21.25
2023-06-16T07:51:02.036Z,21.47
2023-06-16T07:56:05.434Z,21.75
2023-06-16T08:01:09.010Z,21.93
2023-06-16T08:06:12.508Z,22.09
2023-06-16T08:11:16.037Z,22.28
2023-06-16T08:16:19.338Z,22.42
2023-06-16T08:21:22.842Z,22.58
2023-06-16T08:26:26.243Z,22.74
2023-06-16T08:31:29.713Z,22.87
2023-06-16T08:36:34.448Z,23.02
2023-06-16T08:41:39.815Z,23.14
2023-06-16T08:46:43.513Z,23.22
2023-06-16T08:51:51.496Z,23.34
2023-06-16T08:57:02.536Z,23.48
2023-06-16T09:02:24.590Z,23.57
2023-06-16T09:07:29.105Z,23.73
2023-06-16T09:12:32.455Z,23.84
2023-06-16T09:17:36.666Z,23.88
2023-06-16T09:22:40.403Z,23.97
2023-06-16T09:27:51.938Z,24.05
2023-06-16T09:32:55.904Z,24.05
2023-06-16T09:38:02.171Z,24.09
2023-06-16T09:43:11.739Z,24.28
2023-06-16T09:48:15.224Z,24.48
2023-06-16T09:53:20.366Z,24.60
2023-06-16T09:58:37.640Z,24.75
2023-06-16T10:03:50.175Z,24.82
2023-06-16T10:09:19.535Z,24.81
2023-06-16T10:14:26.920Z,24.94
2023-06-16T10:19:36.260Z,24.90
2023-06-16T10:24:40.803Z,24.74
2023-06-16T10:29:47.871Z,24.72
2023-06-16T10:34:58.307Z,24.67
2023-06-16T10:40:09.953Z,24.70
2023-06-16T10:45:30.678Z,24.62
2023-06-16T10:50:39.949Z,24.67
2023-06-16T10:55:44.967Z,24.70
2023-06-16T11:01:03.983Z,24.77
2023-06-16T11:06:07.429Z,24.89
2023-06-16T11:11:10.720Z,24.96
2023-06-16T11:16:13.975Z,24.98
2023-06-16T11:21:17.647Z,25.01
2023-06-16T11:26:23.681Z,25.00
2023-06-16T11:31:30.370Z,24.96
2023-06-16T11:36:36.539Z,24.97
2023-06-16T11:41:42.482Z,24.93
2023-06-16T11:46:51.025Z,25.03
2023-06-16T11:51:54.878Z,25.13
2023-06-16T11:56:59.621Z,25.16
2023-06-16T12:02:04.572Z,25.26
2023-06-16T12:07:08.210Z,25.16
2023-06-16T12:12:11.720Z,24.98
2023-06-16T12:17:14.920Z,24.99
2023-06-16T12:22:18.251Z,25.20
2023-06-16T12:27:27.994Z,25.41
2023-06-16T12:32:32.642Z,25.54
2023-06-16T12:37:39.752Z,25.65
2023-06-16T12:42:42.833Z,25.72
2023-06-16T12:47:46.093Z,25.84
2023-06-16T12:52:49.447Z,25.81
2023-06-16T12:57:52.657Z,25.59
2023-06-16T13:02:56.461Z,25.48
2023-06-16T13:08:00.187Z,25.53
2023-06-16T13:13:03.463Z,25.65
2023-06-16T13:18:08.547Z,25.65
2023-06-16T13:23:23.094Z,25.62
2023-06-16T13:28:26.843Z,25.72
2023-06-16T13:33:30.735Z,25.79
2023-06-16T13:38:34.956Z,25.73
2023-06-16T13:43:38.436Z,25.64
2023-06-16T13:48:41.649Z,25.60
2023-06-16T13:53:44.942Z,25.53
2023-06-16T13:58:48.170Z,25.50
2023-06-16T14:10:18.667Z,25.58
2023-06-16T14:15:22.492Z,25.68
2023-06-16T14:20:25.890Z,25.73
2023-06-16T14:25:29.180Z,25.70
2023-06-16T14:30:34.444Z,25.62
2023-06-16T14:35:37.883Z,25.49
2023-06-16T14:40:41.178Z,25.33
2023-06-16T14:45:44.526Z,25.23
2023-06-16T14:50:48.336Z,25.04
2023-06-16T14:55:51.736Z,24.90
2023-06-16T15:00:55.447Z,24.83
2023-06-16T15:05:58.657Z,24.72
2023-06-16T15:11:01.891Z,24.64
2023-06-16T15:16:05.223Z,24.59
2023-06-16T15:21:09.696Z,24.51
2023-06-16T15:26:13.022Z,24.45
2023-06-16T15:31:16.256Z,24.39
2023-06-16T15:36:19.674Z,24.36
2023-06-16T15:41:23.118Z,24.32
2023-06-16T15:46:26.542Z,24.31
2023-06-16T15:51:30.434Z,24.29
2023-06-16T15:56:34.265Z,24.21
2023-06-16T16:01:39.653Z,24.17
2023-06-16T16:06:43.095Z,24.09
2023-06-16T16:11:46.388Z,24.05
2023-06-16T16:16:49.709Z,24.00
2023-06-16T16:21:53.599Z,23.92
2023-06-16T16:26:56.742Z,23.86
2023-06-16T16:32:02.574Z,23.78
2023-06-16T16:37:07.807Z,23.74
2023-06-16T16:42:11.337Z,23.74
2023-06-16T16:47:16.000Z,23.69
2023-06-16T16:52:19.248Z,23.66
2023-06-16T16:57:22.474Z,23.62
2023-06-16T17:02:25.617Z,23.59
2023-06-16T17:07:28.763Z,23.58
2023-06-16T17:12:32.082Z,23.55
2023-06-16T17:17:35.253Z,23.50
2023-06-16T17:22:38.669Z,23.42
2023-06-16T17:27:57.462Z,23.36
2023-06-16T17:33:02.386Z,23.29
2023-06-16T17:38:33.812Z,23.21
2023-06-16T17:44:05.682Z,23.15
2023-06-16T17:49:09.230Z,23.08
2023-06-16T17:54:13.166Z,22.98
2023-06-16T17:59:16.606Z,22.93
2023-06-16T18:04:22.405Z,22.80
2023-06-16T18:09:25.643Z,22.66
2023-06-16T18:14:31.757Z,22.59
2023-06-16T18:19:35.206Z,22.48
2023-06-16T18:24:38.427Z,22.36
2023-06-16T18:29:41.586Z,22.26
2023-06-16T18:34:44.917Z,22.19
2023-06-16T18:39:48.583Z,22.14
2023-06-16T18:44:51.881Z,22.07
2023-06-16T18:49:56.901Z,22.00
2023-06-16T18:55:01.336Z,21.95
2023-06-16T19:00:06.565Z,21.89
2023-06-16T19:05:12.493Z,21.84
2023-06-16T19:10:15.735Z,21.80
2023-06-16T19:15:21.483Z,21.74
2023-06-16T19:20:24.729Z,21.69
2023-06-16T19:25:28.092Z,21.66
2023-06-16T19:30:31.804Z,21.59
2023-06-16T19:35:34.995Z,21.53
2023-06-16T19:40:38.236Z,21.46
2023-06-16T19:45:41.541Z,21.41
2023-06-16T19:50:44.855Z,21.37
2023-06-16T19:55:50.076Z,21.35
2023-06-16T20:00:54.302Z,21.31
2023-06-16T20:05:57.613Z,21.28
2023-06-16T20:11:00.928Z,21.23
2023-06-16T20:16:05.172Z,21.15
2023-06-16T20:21:26.142Z,21.05
2023-06-16T20:26:33.758Z,20.97
2023-06-16T20:31:37.525Z,20.91
2023-06-16T20:36:43.065Z,20.85
2023-06-16T20:41:46.421Z,20.79
2023-06-16T20:46:49.759Z,20.71
2023-06-16T20:51:54.637Z,20.65
2023-06-16T20:56:59.229Z,20.64
2023-06-16T21:02:03.357Z,20.60
2023-06-16T21:07:06.977Z,20.52
2023-06-16T21:12:11.559Z,20.44
2023-06-16T21:17:15.146Z,20.39
2023-06-16T21:22:18.371Z,20.31
2023-06-16T21:27:21.701Z,20.28
2023-06-16T21:32:27.291Z,20.21
2023-06-16T21:37:32.213Z,20.05
2023-06-16T21:42:38.653Z,19.90
2023-06-16T21:47:42.362Z,19.80
2023-06-16T21:52:45.918Z,19.73
2023-06-16T21:57:49.146Z,19.63
2023-06-16T22:02:52.540Z,19.56
2023-06-16T22:07:58.670Z,19.48
2023-06-16T22:13:05.304Z,19.47
2023-06-16T22:18:09.053Z,19.37
2023-06-16T22:23:13.943Z,19.27
2023-06-16T22:28:17.171Z,19.16
2023-06-16T22:33:22.418Z,19.04
2023-06-16T22:38:25.793Z,18.98
2023-06-16T22:43:29.104Z,18.96
2023-06-16T22:48:33.712Z,18.94
2023-06-16T22:53:36.994Z,18.93
2023-06-16T22:58:40.201Z,18.93
2023-06-16T23:03:43.441Z,18.89
2023-06-16T23:08:46.728Z,18.77
2023-06-16T23:13:49.815Z,18.66
2023-06-16T23:18:53.034Z,18.58
2023-06-16T23:23:57.372Z,18.51
2023-06-16T23:29:01.437Z,18.43
2023-06-16T23:34:04.886Z,18.35
2023-06-16T23:39:09.831Z,18.29
2023-06-16T23:44:13.094Z,18.23
2023-06-16T23:49:16.308Z,18.22
2023-06-16T23:54:19.430Z,18.19
2023-06-16T23:59:24.541Z,18.12
